createdAt,value
2022-12-04T00:01:36.115Z,45.10
2022-12-04T00:04:03.725Z,42.73
2022-12-04T00:06:31.078Z,43.83
2022-12-04T00:08:58.438Z,42.93
2022-12-04T00:11:28.237Z,47.17
2022-12-04T00:13:57.346Z,45.50
2022-12-04T00:16:27.532Z,45.57
2022-12-04T00:18:55.061Z,49.47
2022-12-04T00:21:23.013Z,46.60
2022-12-04T00:23:50.687Z,42.77
2022-12-04T00:26:19.795Z,39.97
2022-12-04T00:28:47.187Z,44.17
2022-12-04T00:31:19.678Z,40.70
2022-12-04T00:33:47.105Z,45.80
2022-12-04T00:36:18.041Z,38.23
2022-12-04T00:38:45.807Z,38.47
2022-12-04T00:41:14.754Z,43.57
2022-12-04T00:43:42.397Z,40.13
2022-12-04T00:46:10.120Z,41.40
2022-12-04T00:48:37.606Z,39.43
2022-12-04T00:51:05.978Z,43.43
2022-12-04T00:53:33.371Z,42.03
2022-12-04T00:56:04.417Z,38.23
2022-12-04T00:58:32.069Z,37.20
2022-12-04T01:01:07.666Z,38.17
2022-12-04T01:03:35.538Z,39.97
2022-12-04T01:06:03.057Z,38.93
2022-12-04T01:08:30.664Z,42.37
2022-12-04T01:10:58.340Z,37.80
2022-12-04T01:13:25.951Z,40.57
2022-12-04T01:15:53.589Z,42.63
2022-12-04T01:18:21.237Z,45.13
2022-12-04T01:20:49.455Z,43.77
2022-12-04T01:23:17.252Z,40.87
2022-12-04T01:25:54.987Z,42.97
2022-12-04T01:28:22.618Z,40.43
2022-12-04T01:31:07.520Z,38.47
2022-12-04T01:33:35.443Z,36.80
2022-12-04T01:36:07.839Z,41.87
2022-12-04T01:38:35.406Z,41.03
2022-12-04T01:41:03.208Z,44.03
2022-12-04T01:43:31.575Z,41.53
2022-12-04T01:46:02.192Z,44.80
2022-12-04T01:48:33.392Z,46.40
2022-12-04T01:51:05.572Z,47.37
2022-12-04T01:53:34.760Z,47.90
2022-12-04T01:56:02.366Z,46.00
2022-12-04T01:58:32.816Z,44.67
2022-12-04T02:01:07.967Z,44.30
2022-12-04T02:03:36.930Z,46.43
2022-12-04T02:06:04.520Z,49.57
2022-12-04T02:08:31.951Z,45.87
2022-12-04T02:11:20.895Z,41.43
2022-12-04T02:14:04.039Z,42.10
2022-12-04T02:16:51.335Z,44.60
2022-12-04T02:19:26.229Z,46.37
2022-12-04T02:21:54.282Z,42.67
2022-12-04T02:24:50.403Z,36.30
2022-12-04T02:27:43.863Z,36.10
2022-12-04T02:30:14.341Z,35.10
2022-12-04T02:33:12.834Z,31.60
2022-12-04T02:36:05.533Z,33.70
2022-12-04T02:38:36.640Z,32.73
2022-12-04T02:41:08.874Z,35.67
2022-12-04T02:43:40.277Z,34.93
2022-12-04T02:46:11.326Z,40.43
2022-12-04T02:48:40.503Z,36.83
2022-12-04T02:51:07.894Z,41.40
2022-12-04T02:53:37.463Z,42.60
2022-12-04T02:56:16.541Z,36.43
2022-12-04T02:59:11.505Z,39.70
2022-12-04T03:01:41.437Z,36.28
2022-12-04T03:04:15.647Z,40.30
2022-12-04T03:06:44.219Z,41.40
2022-12-04T03:09:15.355Z,46.67
2022-12-04T03:11:45.999Z,43.43
2022-12-04T03:14:17.071Z,41.43
2022-12-04T03:16:44.756Z,49.73
2022-12-04T03:19:18.277Z,43.90
2022-12-04T03:21:58.240Z,39.50
2022-12-04T03:24:48.859Z,43.40
2022-12-04T03:27:25.525Z,44.37
2022-12-04T03:30:00.682Z,41.25
2022-12-04T03:32:45.265Z,40.33
2022-12-04T03:35:16.865Z,47.90
2022-12-04T03:38:01.053Z,45.77
2022-12-04T03:40:31.210Z,42.47
2022-12-04T03:43:20.075Z,46.90
2022-12-04T03:46:05.523Z,43.03
2022-12-04T03:48:42.710Z,45.90
2022-12-04T03:51:40.974Z,46.90
2022-12-04T03:54:12.326Z,48.87
2022-12-04T03:56:41.913Z,47.47
2022-12-04T03:59:12.635Z,43.23
2022-12-04T04:01:43.349Z,44.00
2022-12-04T04:04:13.349Z,42.50
2022-12-04T04:06:43.222Z,38.03
2022-12-04T04:09:16.218Z,42.17
2022-12-04T04:11:46.573Z,42.03
2022-12-04T04:14:38.436Z,42.23
2022-12-04T04:17:26.448Z,37.27
2022-12-04T04:20:25.538Z,40.27
2022-12-04T04:23:12.136Z,40.50
2022-12-04T04:25:40.442Z,39.70
2022-12-04T04:28:31.144Z,41.23
2022-12-04T04:31:24.846Z,35.70
2022-12-04T04:34:05.960Z,41.20
2022-12-04T04:36:39.550Z,36.40
2022-12-04T04:39:30.926Z,37.87
2022-12-04T04:42:26.622Z,38.87
2022-12-04T04:44:56.660Z,35.13
2022-12-04T04:47:38.796Z,39.17
2022-12-04T04:50:08.051Z,38.57
2022-12-04T04:52:36.932Z,35.43
2022-12-04T04:55:04.453Z,38.57
2022-12-04T04:57:34.095Z,35.90
2022-12-04T05:00:12.709Z,35.23
2022-12-04T05:02:40.424Z,32.37
2022-12-04T05:05:08.508Z,34.23
2022-12-04T05:07:35.914Z,31.43
2022-12-04T05:10:03.902Z,29.70
2022-12-04T05:12:31.506Z,29.13
2022-12-04T05:14:58.899Z,32.67
2022-12-04T05:17:26.283Z,28.07
2022-12-04T05:19:54.271Z,33.27
2022-12-04T05:22:26.373Z,27.83
2022-12-04T05:24:54.046Z,27.00
2022-12-04T05:27:22.091Z,30.30
2022-12-04T05:29:51.416Z,25.93
2022-12-04T05:32:19.039Z,26.80
2022-12-04T05:34:50.090Z,29.17
2022-12-04T05:37:17.489Z,25.50
2022-12-04T05:39:45.139Z,26.83
2022-12-04T05:42:12.585Z,27.90
2022-12-04T05:44:39.930Z,27.13
2022-12-04T05:47:07.743Z,24.17
2022-12-04T05:49:35.329Z,24.53
2022-12-04T05:52:03.136Z,24.57
2022-12-04T05:54:30.768Z,27.27
2022-12-04T05:56:58.111Z,24.90
2022-12-04T05:59:25.452Z,28.50
2022-12-04T06:01:53.135Z,29.53
2022-12-04T06:04:20.931Z,28.77
2022-12-04T06:06:48.480Z,33.50
2022-12-04T06:09:15.832Z,30.87
2022-12-04T06:11:43.430Z,23.47
2022-12-04T06:14:13.675Z,27.80
2022-12-04T06:16:43.309Z,24.97
2022-12-04T06:19:16.814Z,21.33
2022-12-04T06:21:45.098Z,25.67
2022-12-04T06:24:13.948Z,23.20
2022-12-04T06:27:03.928Z,25.00
2022-12-04T06:29:28.951Z,23.20
2022-12-04T06:31:56.338Z,22.53
2022-12-04T06:34:23.717Z,23.07
2022-12-04T06:36:51.353Z,23.93
2022-12-04T06:39:19.308Z,24.63
2022-12-04T06:41:47.594Z,23.30
2022-12-04T06:44:15.703Z,24.47
2022-12-04T06:46:46.763Z,22.70
2022-12-04T06:49:14.924Z,23.13
2022-12-04T06:51:42.231Z,24.77
2022-12-04T06:54:09.656Z,22.10
2022-12-04T06:56:37.294Z,23.53
2022-12-04T06:59:04.850Z,24.13
2022-12-04T07:01:33.377Z,27.17
2022-12-04T07:04:03.423Z,25.67
2022-12-04T07:06:32.691Z,24.47
2022-12-04T07:09:01.868Z,24.03
2022-12-04T07:11:29.525Z,23.20
2022-12-04T07:13:56.918Z,29.67
2022-12-04T07:16:25.069Z,28.33
2022-12-04T07:18:56.822Z,25.00
2022-12-04T07:21:25.661Z,26.70
2022-12-04T07:23:54.889Z,28.77
2022-12-04T07:26:22.369Z,30.17
2022-12-04T07:28:49.713Z,31.27
2022-12-04T07:31:18.875Z,33.40
2022-12-04T07:33:46.357Z,32.30
2022-12-04T07:36:15.168Z,30.97
2022-12-04T07:38:42.826Z,28.47
2022-12-04T07:41:10.984Z,32.80
2022-12-04T07:43:38.558Z,33.73
2022-12-04T07:46:07.992Z,35.20
2022-12-04T07:48:35.503Z,32.63
2022-12-04T07:51:09.918Z,33.27
2022-12-04T07:53:37.581Z,34.80
2022-12-04T07:56:05.590Z,34.97
2022-12-04T07:58:33.370Z,37.57
2022-12-04T08:01:12.282Z,37.20
2022-12-04T08:03:45.441Z,41.53
2022-12-04T08:06:14.804Z,36.77
2022-12-04T08:08:42.570Z,37.97
2022-12-04T08:11:11.357Z,41.40
2022-12-04T08:13:38.705Z,39.00
2022-12-04T08:16:07.935Z,43.30
2022-12-04T08:18:35.475Z,40.90
2022-12-04T08:21:13.918Z,42.63
2022-12-04T08:23:42.072Z,42.33
2022-12-04T08:26:09.651Z,42.37
2022-12-04T08:28:37.327Z,43.30
2022-12-04T08:31:15.353Z,42.07
2022-12-04T08:33:43.046Z,46.47
2022-12-04T08:36:12.721Z,39.97
2022-12-04T08:38:40.076Z,42.87
2022-12-04T08:41:08.214Z,42.40
2022-12-04T08:43:35.842Z,42.73
2022-12-04T08:46:05.261Z,38.93
2022-12-04T08:48:32.816Z,41.93
2022-12-04T08:51:00.541Z,43.63
2022-12-04T08:53:27.897Z,42.87
2022-12-04T08:55:55.245Z,41.97
2022-12-04T08:58:23.189Z,42.10
2022-12-04T09:00:50.672Z,43.20
2022-12-04T09:03:18.903Z,43.53
2022-12-04T09:05:46.649Z,36.67
2022-12-04T09:08:15.421Z,39.57
2022-12-04T09:10:45.398Z,39.70
2022-12-04T09:13:13.010Z,42.40
2022-12-04T09:15:40.528Z,40.07
2022-12-04T09:18:08.188Z,37.87
2022-12-04T09:20:35.882Z,36.67
2022-12-04T09:23:05.214Z,35.70
2022-12-04T09:25:36.682Z,39.23
2022-12-04T09:28:04.463Z,39.33
2022-12-04T09:30:31.847Z,38.47
2022-12-04T09:32:59.228Z,41.00
2022-12-04T09:35:26.930Z,36.10
2022-12-04T09:37:54.266Z,38.87
2022-12-04T09:40:35.509Z,38.27
2022-12-04T09:43:23.534Z,36.37
2022-12-04T09:45:52.392Z,39.65
2022-12-04T09:48:19.990Z,37.03
2022-12-04T09:50:48.180Z,37.47
2022-12-04T09:53:18.545Z,40.80
2022-12-04T09:55:58.442Z,42.40
2022-12-04T09:58:29.053Z,42.47
2022-12-04T10:00:56.680Z,39.20
2022-12-04T10:03:25.600Z,42.87
2022-12-04T10:05:52.846Z,39.00
2022-12-04T10:08:34.769Z,38.13
2022-12-04T10:11:34.137Z,36.67
2022-12-04T10:14:06.198Z,31.07
2022-12-04T10:16:39.778Z,22.37
2022-12-04T10:19:22.073Z,26.30
2022-12-04T10:22:14.244Z,25.17
2022-12-04T10:24:48.170Z,24.60
2022-12-04T10:27:33.843Z,18.83
2022-12-04T10:30:03.459Z,24.58
2022-12-04T10:32:34.204Z,20.67
2022-12-04T10:35:37.949Z,23.57
2022-12-04T10:38:37.272Z,22.63
2022-12-04T10:41:42.556Z,18.30
2022-12-04T10:44:14.453Z,19.73
2022-12-04T10:46:45.721Z,20.95
2022-12-04T10:49:17.835Z,20.58
2022-12-04T10:51:45.297Z,18.53
2022-12-04T10:54:24.531Z,24.10
2022-12-04T10:56:56.874Z,20.10
2022-12-04T10:59:24.569Z,22.20
2022-12-04T11:01:52.921Z,20.23
2022-12-04T11:04:24.882Z,20.87
2022-12-04T11:07:01.610Z,23.60
2022-12-04T11:09:29.555Z,24.17
2022-12-04T11:12:09.195Z,21.55
2022-12-04T11:14:36.582Z,22.47
2022-12-04T11:17:05.852Z,23.17
2022-12-04T11:19:34.832Z,20.43
2022-12-04T11:22:18.767Z,23.13
2022-12-04T11:24:50.876Z,25.83
2022-12-04T11:27:29.485Z,22.07
2022-12-04T11:29:57.690Z,22.47
2022-12-04T11:32:33.351Z,24.67
2022-12-04T11:35:13.388Z,27.08
2022-12-04T11:37:45.364Z,24.73
2022-12-04T11:40:16.852Z,25.70
2022-12-04T11:42:44.277Z,23.90
2022-12-04T11:45:22.355Z,22.48
2022-12-04T11:47:57.405Z,23.67
2022-12-04T11:51:05.932Z,25.60
2022-12-04T11:53:47.892Z,23.95
2022-12-04T11:56:34.763Z,26.33
2022-12-04T11:59:26.564Z,23.58
2022-12-04T12:02:12.152Z,24.67
2022-12-04T12:05:06.283Z,26.75
2022-12-04T12:08:02.490Z,23.12
2022-12-04T12:10:40.069Z,25.27
2022-12-04T12:13:28.945Z,24.12
2022-12-04T12:16:11.848Z,23.85
2022-12-04T12:19:00.574Z,22.60
2022-12-04T12:21:37.140Z,22.37
2022-12-04T12:24:27.067Z,23.67
2022-12-04T12:27:22.592Z,24.05
2022-12-04T12:30:02.137Z,27.43
2022-12-04T12:33:01.184Z,22.85
2022-12-04T12:35:49.572Z,24.87
2022-12-04T12:38:18.965Z,25.25
2022-12-04T12:40:50.360Z,28.80
2022-12-04T12:43:32.265Z,26.27
2022-12-04T12:46:14.515Z,25.08
2022-12-04T12:49:11.075Z,24.60
2022-12-04T12:54:16.083Z,23.98
2022-12-04T12:56:49.718Z,24.58
2022-12-04T12:59:20.449Z,26.40
2022-12-04T13:02:00.138Z,27.20
2022-12-04T13:04:48.912Z,27.10
2022-12-04T13:07:26.560Z,27.15
2022-12-04T13:10:06.875Z,27.23
2022-12-04T13:13:06.747Z,28.37
2022-12-04T13:15:54.995Z,25.03
2022-12-04T13:18:30.496Z,24.23
2022-12-04T13:21:00.284Z,28.27
2022-12-04T13:24:06.643Z,28.75
2022-12-04T13:27:04.414Z,28.90
2022-12-04T13:30:01.987Z,27.50
2022-12-04T13:32:48.310Z,26.15
2022-12-04T13:35:37.730Z,25.98
2022-12-04T13:39:02.278Z,21.83
2022-12-04T13:41:29.797Z,25.67
2022-12-04T13:43:59.018Z,23.60
2022-12-04T13:46:34.197Z,23.33
2022-12-04T13:49:34.315Z,23.08
2022-12-04T13:52:03.880Z,24.33
2022-12-04T13:54:35.636Z,23.58
2022-12-04T13:57:15.085Z,24.42
2022-12-04T13:59:42.707Z,24.10
2022-12-04T14:02:39.542Z,21.45
2022-12-04T14:05:08.299Z,26.00
2022-12-04T14:07:37.507Z,27.00
2022-12-04T14:10:28.202Z,20.85
2022-12-04T14:12:59.376Z,21.65
2022-12-04T14:15:31.140Z,27.20
2022-12-04T14:18:05.030Z,24.92
2022-12-04T14:20:33.095Z,25.20
2022-12-04T14:23:16.502Z,23.67
2022-12-04T14:25:43.901Z,24.67
2022-12-04T14:28:23.778Z,25.83
2022-12-04T14:31:12.636Z,26.58
2022-12-04T14:33:45.789Z,26.35
2022-12-04T14:36:39.531Z,28.90
2022-12-04T14:39:25.998Z,28.48
2022-12-04T14:41:56.876Z,28.20
2022-12-04T14:44:28.755Z,29.45
2022-12-04T14:47:15.208Z,27.58
2022-12-04T14:50:04.868Z,31.53
2022-12-04T14:52:36.705Z,30.08
2022-12-04T14:55:23.663Z,33.95
2022-12-04T14:58:34.357Z,30.37
2022-12-04T15:01:28.424Z,30.30
2022-12-04T15:03:59.051Z,29.35
2022-12-04T15:06:31.699Z,29.10
2022-12-04T15:09:22.819Z,31.87
2022-12-04T15:12:10.877Z,35.35
2022-12-04T15:14:46.121Z,35.45
2022-12-04T15:17:15.677Z,35.70
2022-12-04T15:19:43.188Z,31.25
2022-12-04T15:22:22.072Z,30.77
2022-12-04T15:24:50.701Z,27.37
2022-12-04T15:27:19.508Z,29.10
2022-12-04T15:29:49.116Z,26.05
2022-12-04T15:32:17.781Z,27.92
2022-12-04T15:34:50.128Z,30.50
2022-12-04T15:37:21.208Z,30.25
2022-12-04T15:39:49.884Z,25.90
2022-12-04T15:42:23.023Z,26.67
2022-12-04T15:45:01.320Z,28.50
2022-12-04T15:47:53.531Z,27.93
2022-12-04T15:50:22.148Z,27.62
2022-12-04T15:53:20.927Z,28.33
2022-12-04T15:55:53.235Z,29.42
2022-12-04T15:58:28.951Z,29.27
2022-12-04T16:01:00.657Z,27.55
2022-12-04T16:03:44.173Z,29.70
2022-12-04T16:06:21.941Z,29.98
2022-12-04T16:08:54.453Z,30.83
2022-12-04T16:11:21.730Z,30.00
2022-12-04T16:14:01.734Z,29.37
2022-12-04T16:16:29.453Z,31.87
2022-12-04T16:18:56.956Z,29.00
2022-12-04T16:21:31.213Z,31.35
2022-12-04T16:24:05.698Z,31.33
2022-12-04T16:26:33.083Z,32.70
2022-12-04T16:29:00.956Z,34.00
2022-12-04T16:31:28.398Z,34.53
2022-12-04T16:33:55.763Z,34.30
2022-12-04T16:36:23.352Z,41.75
2022-12-04T16:38:51.409Z,34.33
2022-12-04T16:41:19.195Z,34.80
2022-12-04T16:43:52.375Z,35.47
2022-12-04T16:46:19.801Z,31.70
2022-12-04T16:48:47.393Z,32.72
2022-12-04T16:51:15.654Z,35.33
2022-12-04T16:53:43.019Z,34.80
2022-12-04T16:56:10.770Z,37.67
2022-12-04T16:58:38.101Z,32.20
2022-12-04T17:01:05.975Z,34.40
2022-12-04T17:03:33.969Z,34.33
2022-12-04T17:06:01.485Z,33.70
2022-12-04T17:08:29.688Z,37.17
2022-12-04T17:10:57.382Z,32.97
2022-12-04T17:13:24.714Z,36.67
2022-12-04T17:15:52.057Z,34.88
2022-12-04T17:18:21.532Z,38.33
2022-12-04T17:20:49.137Z,38.85
2022-12-04T17:23:16.703Z,34.67
2022-12-04T17:25:44.491Z,39.00
2022-12-04T17:28:11.811Z,39.13
2022-12-04T17:30:39.163Z,39.63
2022-12-04T17:33:06.760Z,40.58
2022-12-04T17:35:34.151Z,42.22
2022-12-04T17:38:05.897Z,39.85
2022-12-04T17:40:34.276Z,38.03
2022-12-04T17:43:01.701Z,36.58
2022-12-04T17:45:29.027Z,41.22
2022-12-04T17:47:56.694Z,36.67
2022-12-04T17:50:24.022Z,34.88
2022-12-04T17:52:51.341Z,38.22
2022-12-04T17:55:18.984Z,37.92
2022-12-04T17:57:46.332Z,34.60
2022-12-04T18:00:13.870Z,36.27
2022-12-04T18:02:42.491Z,38.35
2022-12-04T18:05:09.889Z,39.95
2022-12-04T18:07:37.300Z,36.70
2022-12-04T18:10:05.599Z,36.45
2022-12-04T18:12:32.943Z,37.28
2022-12-04T18:15:00.318Z,39.37
2022-12-04T18:17:27.931Z,38.65
2022-12-04T18:19:57.757Z,35.90
2022-12-04T18:22:28.837Z,37.35
2022-12-04T18:24:56.300Z,34.67
2022-12-04T18:27:23.848Z,40.73
2022-12-04T18:29:51.457Z,37.30
2022-12-04T18:32:18.795Z,37.67
2022-12-04T18:34:46.230Z,41.53
2022-12-04T18:37:13.950Z,43.53
2022-12-04T18:39:41.287Z,38.92
2022-12-04T18:42:08.639Z,37.00
2022-12-04T18:44:36.344Z,40.72
2022-12-04T18:47:03.680Z,44.47
2022-12-04T18:49:31.143Z,40.27
2022-12-04T18:51:59.065Z,40.78
2022-12-04T18:54:26.413Z,40.45
2022-12-04T18:56:53.736Z,38.17
2022-12-04T18:59:23.230Z,40.67
2022-12-04T19:01:51.058Z,38.57
2022-12-04T19:04:19.531Z,36.30
2022-12-04T19:06:51.001Z,38.40
2022-12-04T19:09:40.944Z,43.50
2022-12-04T19:12:11.674Z,40.47
2022-12-04T19:14:39.756Z,36.60
2022-12-04T19:17:07.258Z,37.83
2022-12-04T19:19:34.932Z,38.55
2022-12-04T19:22:02.288Z,40.83
2022-12-04T19:24:29.700Z,37.10
2022-12-04T19:26:57.478Z,38.17
2022-12-04T19:29:24.790Z,37.38
2022-12-04T19:31:57.569Z,38.43
2022-12-04T19:34:26.693Z,37.53
2022-12-04T19:36:54.274Z,34.78
2022-12-04T19:39:21.650Z,34.88
2022-12-04T19:41:49.369Z,34.93
2022-12-04T19:44:47.285Z,34.67
2022-12-04T19:47:04.419Z,35.33
2022-12-04T19:49:31.768Z,39.35
2022-12-04T19:51:59.129Z,39.67
2022-12-04T19:54:27.412Z,39.27
2022-12-04T19:56:54.744Z,33.88
2022-12-04T19:59:22.043Z,33.47
2022-12-04T20:01:49.879Z,33.60
2022-12-04T20:04:17.647Z,32.00
2022-12-04T20:06:45.634Z,32.00
2022-12-04T20:09:15.763Z,30.53
2022-12-04T20:11:43.373Z,34.08
2022-12-04T20:14:10.805Z,33.58
2022-12-04T20:16:38.729Z,31.30
2022-12-04T20:19:07.388Z,33.78
2022-12-04T20:21:34.710Z,29.83
2022-12-04T20:24:04.058Z,29.65
2022-12-04T20:26:33.463Z,28.15
2022-12-04T20:29:01.078Z,28.83
2022-12-04T20:31:39.133Z,24.98
2022-12-04T20:34:08.292Z,27.55
2022-12-04T20:36:40.117Z,25.70
2022-12-04T20:39:07.858Z,26.00
2022-12-04T20:41:35.328Z,23.45
2022-12-04T20:44:04.089Z,19.12
2022-12-04T20:46:36.456Z,22.30
2022-12-04T20:49:06.261Z,18.73
2022-12-04T20:51:35.806Z,20.73
2022-12-04T20:54:03.255Z,15.18
2022-12-04T20:56:32.950Z,17.35
2022-12-04T20:59:03.068Z,15.88
2022-12-04T21:01:30.508Z,15.45
2022-12-04T21:04:00.978Z,14.73
2022-12-04T21:06:35.864Z,13.88
2022-12-04T21:09:27.488Z,13.18
2022-12-04T21:11:55.359Z,12.65
2022-12-04T21:14:43.102Z,14.13
2022-12-04T21:17:16.520Z,11.77
2022-12-04T21:19:44.838Z,12.32
2022-12-04T21:22:13.063Z,9.93
2022-12-04T21:24:42.116Z,11.33
2022-12-04T21:27:10.980Z,10.55
2022-12-04T21:29:40.096Z,10.07
2022-12-04T21:32:07.429Z,10.68
2022-12-04T21:34:34.907Z,11.23
2022-12-04T21:37:02.625Z,10.45
2022-12-04T21:39:29.982Z,9.82
2022-12-04T21:42:16.036Z,12.77
2022-12-04T21:44:43.779Z,10.15
2022-12-04T21:47:11.237Z,13.05
2022-12-04T21:49:38.573Z,9.85
2022-12-04T21:52:06.176Z,11.85
2022-12-04T21:54:33.510Z,10.63
2022-12-04T21:57:00.880Z,10.77
2022-12-04T21:59:28.539Z,10.67
2022-12-04T22:01:55.923Z,9.07
2022-12-04T22:04:23.659Z,9.95
2022-12-04T22:06:51.008Z,10.90
2022-12-04T22:09:18.353Z,11.50
2022-12-04T22:11:46.084Z,8.55
2022-12-04T22:14:13.730Z,10.73
2022-12-04T22:16:43.421Z,8.90
2022-12-04T22:19:12.135Z,10.00
2022-12-04T22:21:39.702Z,8.07
2022-12-04T22:24:07.919Z,10.60
2022-12-04T22:26:35.597Z,10.48
2022-12-04T22:29:11.250Z,8.63
2022-12-04T22:31:50.917Z,7.62
2022-12-04T22:34:18.301Z,9.40
2022-12-04T22:36:45.656Z,9.30
2022-12-04T22:39:13.243Z,11.20
2022-12-04T22:41:40.582Z,9.98
2022-12-04T22:44:07.910Z,9.40
2022-12-04T22:46:35.569Z,8.90
2022-12-04T22:49:02.994Z,8.87
2022-12-04T22:51:30.528Z,9.15
2022-12-04T22:53:58.440Z,10.27
2022-12-04T22:56:27.461Z,9.63
2022-12-04T22:58:54.835Z,8.70
2022-12-04T23:01:23.289Z,8.97
2022-12-04T23:03:50.981Z,9.93
2022-12-04T23:06:19.379Z,9.63
2022-12-04T23:08:46.936Z,9.50
2022-12-04T23:11:16.612Z,10.13
2022-12-04T23:13:44.111Z,11.03
2022-12-04T23:16:16.907Z,10.40
2022-12-04T23:18:47.189Z,10.48
2022-12-04T23:21:14.929Z,10.82
2022-12-04T23:23:43.263Z,11.60
2022-12-04T23:26:12.794Z,13.15
2022-12-04T23:28:40.418Z,11.97
2022-12-04T23:31:07.940Z,10.95
2022-12-04T23:33:35.531Z,10.13
2022-12-04T23:36:03.908Z,10.10
2022-12-04T23:38:31.312Z,10.20
2022-12-04T23:41:05.546Z,11.87
2022-12-04T23:43:33.379Z,11.10
2022-12-04T23:46:04.486Z,9.03
2022-12-04T23:48:35.062Z,10.23
2022-12-04T23:51:02.412Z,9.43
2022-12-04T23:53:29.748Z,9.33
2022-12-04T23:56:05.219Z,11.87
2022-12-04T23:58:32.875Z,8.03
